sensor_id;sensor_type;location;lat;lon;timestamp;P1;durP1;ratioP1;P2;durP2;ratioP2
36799;SDS011;22752;51.960;5.886;2022-10-22T00:01:13;7.13;;;2.08;;
36799;SDS011;22752;51.960;5.886;2022-10-22T00:03:39;2.85;;;1.90;;
36799;SDS011;22752;51.960;5.886;2022-10-22T00:06:05;4.45;;;1.85;;
36799;SDS011;22752;51.960;5.886;2022-10-22T00:08:31;3.00;;;2.38;;
36799;SDS011;22752;51.960;5.886;2022-10-22T00:10:56;2.50;;;2.30;;
36799;SDS011;22752;51.960;5.886;2022-10-22T00:13:22;3.38;;;2.40;;
36799;SDS011;22752;51.960;5.886;2022-10-22T00:15:48;4.05;;;2.78;;
36799;SDS011;22752;51.960;5.886;2022-10-22T00:18:14;4.43;;;2.42;;
36799;SDS011;22752;51.960;5.886;2022-10-22T00:20:40;2.30;;;2.10;;
36799;SDS011;22752;51.960;5.886;2022-10-22T00:23:05;2.38;;;2.15;;
36799;SDS011;22752;51.960;5.886;2022-10-22T00:25:32;3.08;;;2.08;;
36799;SDS011;22752;51.960;5.886;2022-10-22T00:27:59;4.82;;;2.40;;
36799;SDS011;22752;51.960;5.886;2022-10-22T00:30:25;2.85;;;2.00;;
36799;SDS011;22752;51.960;5.886;2022-10-22T00:32:52;4.85;;;2.25;;
36799;SDS011;22752;51.960;5.886;2022-10-22T00:35:18;5.47;;;2.10;;
36799;SDS011;22752;51.960;5.886;2022-10-22T00:37:44;5.55;;;2.35;;
36799;SDS011;22752;51.960;5.886;2022-10-22T00:40:10;3.33;;;2.08;;
36799;SDS011;22752;51.960;5.886;2022-10-22T00:42:36;4.03;;;2.85;;
36799;SDS011;22752;51.960;5.886;2022-10-22T00:53:03;5.25;;;3.25;;
36799;SDS011;22752;51.960;5.886;2022-10-22T00:55:43;6.30;;;3.50;;
36799;SDS011;22752;51.960;5.886;2022-10-22T00:58:10;7.47;;;3.83;;
36799;SDS011;22752;51.960;5.886;2022-10-22T01:00:37;3.78;;;3.15;;
36799;SDS011;22752;51.960;5.886;2022-10-22T01:03:04;7.50;;;3.58;;
36799;SDS011;22752;51.960;5.886;2022-10-22T01:05:30;6.90;;;4.40;;
36799;SDS011;22752;51.960;5.886;2022-10-22T01:08:05;6.32;;;3.70;;
36799;SDS011;22752;51.960;5.886;2022-10-22T01:10:49;5.68;;;3.25;;
36799;SDS011;22752;51.960;5.886;2022-10-22T01:13:43;3.88;;;2.80;;
36799;SDS011;22752;51.960;5.886;2022-10-22T01:16:16;4.00;;;3.10;;
36799;SDS011;22752;51.960;5.886;2022-10-22T01:21:51;5.75;;;3.75;;
36799;SDS011;22752;51.960;5.886;2022-10-22T01:27:34;5.72;;;4.63;;
36799;SDS011;22752;51.960;5.886;2022-10-22T01:30:05;5.77;;;4.30;;
36799;SDS011;22752;51.960;5.886;2022-10-22T01:32:38;5.27;;;4.13;;
36799;SDS011;22752;51.960;5.886;2022-10-22T01:35:08;6.83;;;4.13;;
36799;SDS011;22752;51.960;5.886;2022-10-22T01:37:42;7.53;;;3.97;;
36799;SDS011;22752;51.960;5.886;2022-10-22T01:40:12;5.37;;;3.60;;
36799;SDS011;22752;51.960;5.886;2022-10-22T01:42:39;6.73;;;4.27;;
36799;SDS011;22752;51.960;5.886;2022-10-22T01:45:11;7.17;;;4.00;;
36799;SDS011;22752;51.960;5.886;2022-10-22T01:55:54;6.90;;;4.10;;
36799;SDS011;22752;51.960;5.886;2022-10-22T02:04:32;9.03;;;5.40;;
36799;SDS011;22752;51.960;5.886;2022-10-22T02:07:17;9.27;;;5.43;;
36799;SDS011;22752;51.960;5.886;2022-10-22T02:09:45;6.38;;;5.10;;
36799;SDS011;22752;51.960;5.886;2022-10-22T02:12:13;10.73;;;6.10;;
36799;SDS011;22752;51.960;5.886;2022-10-22T02:14:42;6.40;;;5.60;;
36799;SDS011;22752;51.960;5.886;2022-10-22T02:17:10;13.30;;;5.87;;
36799;SDS011;22752;51.960;5.886;2022-10-22T02:19:55;11.80;;;5.60;;
36799;SDS011;22752;51.960;5.886;2022-10-22T02:22:24;7.70;;;5.10;;
36799;SDS011;22752;51.960;5.886;2022-10-22T02:24:51;7.03;;;5.57;;
36799;SDS011;22752;51.960;5.886;2022-10-22T02:32:29;36.03;;;5.97;;
36799;SDS011;22752;51.960;5.886;2022-10-22T02:34:59;6.55;;;4.93;;
36799;SDS011;22752;51.960;5.886;2022-10-22T02:37:25;7.50;;;5.33;;
36799;SDS011;22752;51.960;5.886;2022-10-22T02:39:52;5.70;;;5.00;;
36799;SDS011;22752;51.960;5.886;2022-10-22T02:42:20;7.57;;;4.80;;
36799;SDS011;22752;51.960;5.886;2022-10-22T02:44:50;6.83;;;4.40;;
36799;SDS011;22752;51.960;5.886;2022-10-22T02:47:16;12.17;;;5.40;;
36799;SDS011;22752;51.960;5.886;2022-10-22T02:49:42;19.60;;;6.47;;
36799;SDS011;22752;51.960;5.886;2022-10-22T02:52:08;6.73;;;5.27;;
36799;SDS011;22752;51.960;5.886;2022-10-22T02:54:33;9.53;;;5.67;;
36799;SDS011;22752;51.960;5.886;2022-10-22T02:56:59;8.23;;;5.57;;
36799;SDS011;22752;51.960;5.886;2022-10-22T02:59:25;7.70;;;5.10;;
36799;SDS011;22752;51.960;5.886;2022-10-22T03:01:50;8.13;;;5.70;;
36799;SDS011;22752;51.960;5.886;2022-10-22T03:04:16;6.57;;;5.40;;
36799;SDS011;22752;51.960;5.886;2022-10-22T03:06:41;6.73;;;5.13;;
36799;SDS011;22752;51.960;5.886;2022-10-22T03:09:08;8.77;;;5.93;;
36799;SDS011;22752;51.960;5.886;2022-10-22T03:11:34;7.17;;;5.13;;
36799;SDS011;22752;51.960;5.886;2022-10-22T03:14:00;8.60;;;5.67;;
36799;SDS011;22752;51.960;5.886;2022-10-22T03:16:28;6.17;;;5.20;;
36799;SDS011;22752;51.960;5.886;2022-10-22T03:18:56;8.93;;;5.40;;
36799;SDS011;22752;51.960;5.886;2022-10-22T03:21:27;10.02;;;5.80;;
36799;SDS011;22752;51.960;5.886;2022-10-22T03:24:04;6.17;;;4.90;;
36799;SDS011;22752;51.960;5.886;2022-10-22T03:26:33;9.30;;;6.10;;
36799;SDS011;22752;51.960;5.886;2022-10-22T03:28:59;7.97;;;5.17;;
36799;SDS011;22752;51.960;5.886;2022-10-22T03:31:26;7.33;;;5.60;;
36799;SDS011;22752;51.960;5.886;2022-10-22T03:33:51;7.73;;;5.57;;
36799;SDS011;22752;51.960;5.886;2022-10-22T03:36:17;9.33;;;6.23;;
36799;SDS011;22752;51.960;5.886;2022-10-22T03:38:43;7.27;;;5.90;;
36799;SDS011;22752;51.960;5.886;2022-10-22T03:41:08;9.17;;;5.90;;
36799;SDS011;22752;51.960;5.886;2022-10-22T03:43:35;6.67;;;5.37;;
36799;SDS011;22752;51.960;5.886;2022-10-22T03:46:01;9.60;;;5.57;;
36799;SDS011;22752;51.960;5.886;2022-10-22T03:48:27;9.20;;;5.40;;
36799;SDS011;22752;51.960;5.886;2022-10-22T03:50:53;9.53;;;5.40;;
36799;SDS011;22752;51.960;5.886;2022-10-22T03:53:18;7.13;;;5.37;;
36799;SDS011;22752;51.960;5.886;2022-10-22T03:55:44;6.97;;;4.93;;
36799;SDS011;22752;51.960;5.886;2022-10-22T03:58:10;9.30;;;4.90;;
36799;SDS011;22752;51.960;5.886;2022-10-22T04:00:35;5.37;;;4.70;;
36799;SDS011;22752;51.960;5.886;2022-10-22T04:03:01;5.57;;;4.20;;
36799;SDS011;22752;51.960;5.886;2022-10-22T04:05:27;6.80;;;5.17;;
36799;SDS011;22752;51.960;5.886;2022-10-22T04:07:52;6.63;;;4.80;;
36799;SDS011;22752;51.960;5.886;2022-10-22T04:10:18;7.63;;;4.30;;
36799;SDS011;22752;51.960;5.886;2022-10-22T04:12:46;6.93;;;4.53;;
36799;SDS011;22752;51.960;5.886;2022-10-22T04:15:12;9.13;;;5.03;;
36799;SDS011;22752;51.960;5.886;2022-10-22T04:17:37;7.07;;;4.50;;
36799;SDS011;22752;51.960;5.886;2022-10-22T04:20:03;6.27;;;4.40;;
36799;SDS011;22752;51.960;5.886;2022-10-22T04:22:32;10.33;;;5.37;;
36799;SDS011;22752;51.960;5.886;2022-10-22T04:24:58;6.23;;;4.77;;
36799;SDS011;22752;51.960;5.886;2022-10-22T04:27:24;8.87;;;4.97;;
36799;SDS011;22752;51.960;5.886;2022-10-22T04:29:53;8.30;;;5.33;;
36799;SDS011;22752;51.960;5.886;2022-10-22T04:32:18;7.00;;;4.53;;
36799;SDS011;22752;51.960;5.886;2022-10-22T04:34:44;5.77;;;4.23;;
36799;SDS011;22752;51.960;5.886;2022-10-22T04:37:09;8.57;;;4.80;;
36799;SDS011;22752;51.960;5.886;2022-10-22T04:39:35;5.13;;;3.83;;
36799;SDS011;22752;51.960;5.886;2022-10-22T04:42:01;5.50;;;3.90;;
36799;SDS011;22752;51.960;5.886;2022-10-22T04:44:27;8.07;;;4.47;;
36799;SDS011;22752;51.960;5.886;2022-10-22T04:46:53;6.67;;;4.30;;
36799;SDS011;22752;51.960;5.886;2022-10-22T04:49:18;5.07;;;4.00;;
36799;SDS011;22752;51.960;5.886;2022-10-22T04:51:44;6.20;;;4.07;;
36799;SDS011;22752;51.960;5.886;2022-10-22T04:54:10;10.27;;;4.63;;
36799;SDS011;22752;51.960;5.886;2022-10-22T04:56:35;9.60;;;4.33;;
36799;SDS011;22752;51.960;5.886;2022-10-22T04:59:03;4.77;;;3.70;;
36799;SDS011;22752;51.960;5.886;2022-10-22T05:01:34;6.33;;;4.10;;
36799;SDS011;22752;51.960;5.886;2022-10-22T05:04:01;7.00;;;4.53;;
36799;SDS011;22752;51.960;5.886;2022-10-22T05:06:28;7.07;;;4.27;;
36799;SDS011;22752;51.960;5.886;2022-10-22T05:08:57;7.90;;;4.47;;
36799;SDS011;22752;51.960;5.886;2022-10-22T05:11:26;7.67;;;4.60;;
36799;SDS011;22752;51.960;5.886;2022-10-22T05:13:58;7.70;;;3.83;;
36799;SDS011;22752;51.960;5.886;2022-10-22T05:16:25;9.93;;;4.60;;
36799;SDS011;22752;51.960;5.886;2022-10-22T05:18:52;12.00;;;4.57;;
36799;SDS011;22752;51.960;5.886;2022-10-22T05:21:19;11.47;;;4.67;;
36799;SDS011;22752;51.960;5.886;2022-10-22T05:23:45;8.13;;;4.28;;
36799;SDS011;22752;51.960;5.886;2022-10-22T05:26:13;11.23;;;4.70;;
36799;SDS011;22752;51.960;5.886;2022-10-22T05:28:40;7.83;;;4.63;;
36799;SDS011;22752;51.960;5.886;2022-10-22T05:31:07;6.67;;;4.37;;
36799;SDS011;22752;51.960;5.886;2022-10-22T05:33:34;10.10;;;4.68;;
36799;SDS011;22752;51.960;5.886;2022-10-22T05:36:00;10.30;;;4.97;;
36799;SDS011;22752;51.960;5.886;2022-10-22T05:38:28;12.02;;;5.60;;
36799;SDS011;22752;51.960;5.886;2022-10-22T05:41:28;10.63;;;5.53;;
36799;SDS011;22752;51.960;5.886;2022-10-22T05:43:48;9.52;;;4.60;;
36799;SDS011;22752;51.960;5.886;2022-10-22T05:46:15;9.32;;;4.25;;
36799;SDS011;22752;51.960;5.886;2022-10-22T05:48:52;11.68;;;5.47;;
36799;SDS011;22752;51.960;5.886;2022-10-22T05:51:29;13.37;;;5.30;;
36799;SDS011;22752;51.960;5.886;2022-10-22T05:53:57;10.02;;;4.68;;
36799;SDS011;22752;51.960;5.886;2022-10-22T05:56:26;13.20;;;4.80;;
36799;SDS011;22752;51.960;5.886;2022-10-22T05:58:52;11.68;;;5.13;;
36799;SDS011;22752;51.960;5.886;2022-10-22T06:01:19;16.10;;;5.43;;
36799;SDS011;22752;51.960;5.886;2022-10-22T06:03:47;11.13;;;5.15;;
36799;SDS011;22752;51.960;5.886;2022-10-22T06:08:45;10.52;;;5.72;;
36799;SDS011;22752;51.960;5.886;2022-10-22T06:11:12;13.63;;;5.20;;
36799;SDS011;22752;51.960;5.886;2022-10-22T06:13:38;16.37;;;5.80;;
36799;SDS011;22752;51.960;5.886;2022-10-22T06:16:04;13.27;;;5.38;;
36799;SDS011;22752;51.960;5.886;2022-10-22T06:18:29;12.52;;;5.32;;
36799;SDS011;22752;51.960;5.886;2022-10-22T06:21:02;16.45;;;6.10;;
36799;SDS011;22752;51.960;5.886;2022-10-22T06:23:32;15.43;;;6.40;;
36799;SDS011;22752;51.960;5.886;2022-10-22T06:25:58;11.75;;;5.93;;
36799;SDS011;22752;51.960;5.886;2022-10-22T06:28:24;14.05;;;5.93;;
36799;SDS011;22752;51.960;5.886;2022-10-22T06:30:50;11.27;;;6.20;;
36799;SDS011;22752;51.960;5.886;2022-10-22T06:33:15;14.93;;;6.25;;
36799;SDS011;22752;51.960;5.886;2022-10-22T06:35:41;18.83;;;6.85;;
36799;SDS011;22752;51.960;5.886;2022-10-22T06:38:07;12.27;;;6.05;;
36799;SDS011;22752;51.960;5.886;2022-10-22T06:40:32;14.27;;;6.32;;
36799;SDS011;22752;51.960;5.886;2022-10-22T06:42:58;18.20;;;6.50;;
36799;SDS011;22752;51.960;5.886;2022-10-22T06:45:24;11.65;;;6.35;;
36799;SDS011;22752;51.960;5.886;2022-10-22T06:47:50;13.18;;;6.15;;
36799;SDS011;22752;51.960;5.886;2022-10-22T06:50:16;13.68;;;5.97;;
36799;SDS011;22752;51.960;5.886;2022-10-22T06:52:42;15.50;;;5.63;;
36799;SDS011;22752;51.960;5.886;2022-10-22T06:55:08;16.30;;;6.30;;
36799;SDS011;22752;51.960;5.886;2022-10-22T06:57:34;12.80;;;6.32;;
36799;SDS011;22752;51.960;5.886;2022-10-22T07:00:00;12.30;;;5.50;;
36799;SDS011;22752;51.960;5.886;2022-10-22T07:02:25;15.35;;;6.40;;
36799;SDS011;22752;51.960;5.886;2022-10-22T07:04:51;14.85;;;5.72;;
36799;SDS011;22752;51.960;5.886;2022-10-22T07:07:17;17.90;;;6.82;;
36799;SDS011;22752;51.960;5.886;2022-10-22T07:09:42;14.50;;;6.07;;
36799;SDS011;22752;51.960;5.886;2022-10-22T07:12:10;13.85;;;6.10;;
36799;SDS011;22752;51.960;5.886;2022-10-22T07:14:37;12.80;;;5.45;;
36799;SDS011;22752;51.960;5.886;2022-10-22T07:17:03;16.52;;;6.82;;
36799;SDS011;22752;51.960;5.886;2022-10-22T07:19:29;14.35;;;5.30;;
36799;SDS011;22752;51.960;5.886;2022-10-22T07:21:55;14.75;;;5.80;;
36799;SDS011;22752;51.960;5.886;2022-10-22T07:24:21;17.65;;;6.85;;
36799;SDS011;22752;51.960;5.886;2022-10-22T07:26:47;12.30;;;6.70;;
36799;SDS011;22752;51.960;5.886;2022-10-22T07:29:13;21.50;;;6.65;;
36799;SDS011;22752;51.960;5.886;2022-10-22T07:31:39;18.60;;;6.10;;
36799;SDS011;22752;51.960;5.886;2022-10-22T07:34:06;14.27;;;5.65;;
36799;SDS011;22752;51.960;5.886;2022-10-22T07:36:32;13.93;;;5.28;;
36799;SDS011;22752;51.960;5.886;2022-10-22T07:38:58;14.30;;;5.25;;
36799;SDS011;22752;51.960;5.886;2022-10-22T07:41:25;11.52;;;4.70;;
36799;SDS011;22752;51.960;5.886;2022-10-22T07:43:51;14.93;;;5.70;;
36799;SDS011;22752;51.960;5.886;2022-10-22T07:46:17;12.35;;;4.75;;
36799;SDS011;22752;51.960;5.886;2022-10-22T07:48:43;15.75;;;5.85;;
36799;SDS011;22752;51.960;5.886;2022-10-22T07:51:08;15.02;;;6.03;;
36799;SDS011;22752;51.960;5.886;2022-10-22T07:53:34;17.20;;;6.50;;
36799;SDS011;22752;51.960;5.886;2022-10-22T07:56:00;16.85;;;5.43;;
36799;SDS011;22752;51.960;5.886;2022-10-22T07:58:26;18.80;;;5.43;;
36799;SDS011;22752;51.960;5.886;2022-10-22T08:00:54;21.08;;;5.10;;
36799;SDS011;22752;51.960;5.886;2022-10-22T08:03:21;15.90;;;4.65;;
36799;SDS011;22752;51.960;5.886;2022-10-22T08:05:47;14.30;;;4.72;;
36799;SDS011;22752;51.960;5.886;2022-10-22T08:08:13;12.23;;;4.85;;
36799;SDS011;22752;51.960;5.886;2022-10-22T08:10:40;13.88;;;4.28;;
36799;SDS011;22752;51.960;5.886;2022-10-22T08:13:07;15.93;;;5.38;;
36799;SDS011;22752;51.960;5.886;2022-10-22T08:15:33;13.88;;;4.32;;
36799;SDS011;22752;51.960;5.886;2022-10-22T08:17:59;12.57;;;5.10;;
36799;SDS011;22752;51.960;5.886;2022-10-22T08:20:25;12.15;;;3.70;;
36799;SDS011;22752;51.960;5.886;2022-10-22T08:22:50;12.60;;;3.70;;
36799;SDS011;22752;51.960;5.886;2022-10-22T08:25:16;12.50;;;3.50;;
36799;SDS011;22752;51.960;5.886;2022-10-22T08:27:42;13.00;;;3.85;;
36799;SDS011;22752;51.960;5.886;2022-10-22T08:30:09;13.57;;;3.58;;
36799;SDS011;22752;51.960;5.886;2022-10-22T08:32:35;12.68;;;3.83;;
36799;SDS011;22752;51.960;5.886;2022-10-22T08:35:01;9.25;;;3.33;;
36799;SDS011;22752;51.960;5.886;2022-10-22T08:37:26;13.60;;;3.33;;
36799;SDS011;22752;51.960;5.886;2022-10-22T08:39:52;18.52;;;3.70;;
36799;SDS011;22752;51.960;5.886;2022-10-22T08:47:46;15.25;;;3.88;;
36799;SDS011;22752;51.960;5.886;2022-10-22T08:50:39;13.48;;;3.88;;
36799;SDS011;22752;51.960;5.886;2022-10-22T08:53:17;11.30;;;2.95;;
36799;SDS011;22752;51.960;5.886;2022-10-22T08:55:45;11.10;;;3.05;;
36799;SDS011;22752;51.960;5.886;2022-10-22T09:00:59;9.48;;;3.20;;
36799;SDS011;22752;51.960;5.886;2022-10-22T09:08:28;11.82;;;2.90;;
36799;SDS011;22752;51.960;5.886;2022-10-22T09:11:01;10.93;;;2.92;;
36799;SDS011;22752;51.960;5.886;2022-10-22T09:13:39;9.35;;;2.70;;
36799;SDS011;22752;51.960;5.886;2022-10-22T09:19:13;10.93;;;2.75;;
36799;SDS011;22752;51.960;5.886;2022-10-22T09:24:45;12.85;;;2.60;;
36799;SDS011;22752;51.960;5.886;2022-10-22T09:27:18;12.85;;;3.30;;
36799;SDS011;22752;51.960;5.886;2022-10-22T09:29:49;8.52;;;2.70;;
36799;SDS011;22752;51.960;5.886;2022-10-22T09:32:15;13.10;;;2.75;;
36799;SDS011;22752;51.960;5.886;2022-10-22T09:34:45;17.13;;;3.05;;
36799;SDS011;22752;51.960;5.886;2022-10-22T09:37:14;11.95;;;3.17;;
36799;SDS011;22752;51.960;5.886;2022-10-22T09:39:47;11.82;;;3.22;;
36799;SDS011;22752;51.960;5.886;2022-10-22T09:42:16;10.57;;;2.90;;
36799;SDS011;22752;51.960;5.886;2022-10-22T09:44:43;11.23;;;2.67;;
36799;SDS011;22752;51.960;5.886;2022-10-22T09:47:33;10.13;;;2.55;;
36799;SDS011;22752;51.960;5.886;2022-10-22T09:53:20;11.75;;;2.72;;
36799;SDS011;22752;51.960;5.886;2022-10-22T09:55:53;14.32;;;2.80;;
36799;SDS011;22752;51.960;5.886;2022-10-22T09:58:21;11.27;;;2.55;;
36799;SDS011;22752;51.960;5.886;2022-10-22T10:00:51;9.73;;;2.72;;
36799;SDS011;22752;51.960;5.886;2022-10-22T10:03:19;14.45;;;2.85;;
36799;SDS011;22752;51.960;5.886;2022-10-22T10:05:48;13.18;;;2.88;;
36799;SDS011;22752;51.960;5.886;2022-10-22T10:08:17;9.20;;;2.70;;
36799;SDS011;22752;51.960;5.886;2022-10-22T10:21:24;11.45;;;3.00;;
36799;SDS011;22752;51.960;5.886;2022-10-22T10:34:58;21.20;;;3.85;;
36799;SDS011;22752;51.960;5.886;2022-10-22T10:37:29;12.68;;;2.92;;
36799;SDS011;22752;51.960;5.886;2022-10-22T10:43:29;14.45;;;3.40;;
36799;SDS011;22752;51.960;5.886;2022-10-22T10:46:08;12.00;;;3.17;;
36799;SDS011;22752;51.960;5.886;2022-10-22T11:11:00;12.23;;;3.08;;
36799;SDS011;22752;51.960;5.886;2022-10-22T11:13:47;9.10;;;2.88;;
36799;SDS011;22752;51.960;5.886;2022-10-22T11:22:02;7.35;;;2.20;;
36799;SDS011;22752;51.960;5.886;2022-10-22T11:24:34;9.82;;;2.50;;
36799;SDS011;22752;51.960;5.886;2022-10-22T11:27:18;10.40;;;2.85;;
36799;SDS011;22752;51.960;5.886;2022-10-22T11:30:11;11.27;;;2.53;;
36799;SDS011;22752;51.960;5.886;2022-10-22T11:32:49;13.90;;;3.13;;
36799;SDS011;22752;51.960;5.886;2022-10-22T11:35:20;10.32;;;2.47;;
36799;SDS011;22752;51.960;5.886;2022-10-22T11:37:55;9.73;;;2.63;;
36799;SDS011;22752;51.960;5.886;2022-10-22T11:42:57;12.50;;;2.57;;
36799;SDS011;22752;51.960;5.886;2022-10-22T11:45:30;11.82;;;2.70;;
36799;SDS011;22752;51.960;5.886;2022-10-22T12:11:21;16.83;;;2.92;;
36799;SDS011;22752;51.960;5.886;2022-10-22T12:14:02;12.80;;;2.80;;
36799;SDS011;22752;51.960;5.886;2022-10-22T12:16:37;14.57;;;2.67;;
36799;SDS011;22752;51.960;5.886;2022-10-22T12:21:51;10.60;;;2.75;;
36799;SDS011;22752;51.960;5.886;2022-10-22T12:24:21;14.95;;;2.88;;
36799;SDS011;22752;51.960;5.886;2022-10-22T12:26:48;13.23;;;2.72;;
36799;SDS011;22752;51.960;5.886;2022-10-22T12:29:17;12.02;;;2.80;;
36799;SDS011;22752;51.960;5.886;2022-10-22T12:31:46;11.27;;;2.63;;
36799;SDS011;22752;51.960;5.886;2022-10-22T12:34:13;9.40;;;2.60;;
36799;SDS011;22752;51.960;5.886;2022-10-22T12:36:41;10.90;;;2.58;;
36799;SDS011;22752;51.960;5.886;2022-10-22T12:39:11;16.25;;;2.83;;
36799;SDS011;22752;51.960;5.886;2022-10-22T12:44:05;12.90;;;2.63;;
36799;SDS011;22752;51.960;5.886;2022-10-22T12:46:32;12.95;;;3.03;;
36799;SDS011;22752;51.960;5.886;2022-10-22T12:49:00;13.48;;;2.65;;
36799;SDS011;22752;51.960;5.886;2022-10-22T12:51:28;10.65;;;2.35;;
36799;SDS011;22752;51.960;5.886;2022-10-22T12:53:56;11.88;;;2.83;;
36799;SDS011;22752;51.960;5.886;2022-10-22T12:56:27;12.90;;;2.83;;
36799;SDS011;22752;51.960;5.886;2022-10-22T13:01:21;13.15;;;3.10;;
36799;SDS011;22752;51.960;5.886;2022-10-22T13:03:47;12.73;;;3.28;;
36799;SDS011;22752;51.960;5.886;2022-10-22T13:08:44;12.75;;;2.85;;
36799;SDS011;22752;51.960;5.886;2022-10-22T13:11:33;10.48;;;2.47;;
36799;SDS011;22752;51.960;5.886;2022-10-22T13:14:04;16.30;;;3.17;;
36799;SDS011;22752;51.960;5.886;2022-10-22T13:22:29;17.75;;;3.10;;
36799;SDS011;22752;51.960;5.886;2022-10-22T13:24:58;11.23;;;2.83;;
36799;SDS011;22752;51.960;5.886;2022-10-22T13:30:27;12.85;;;2.65;;
36799;SDS011;22752;51.960;5.886;2022-10-22T13:33:02;13.85;;;2.70;;
36799;SDS011;22752;51.960;5.886;2022-10-22T13:35:43;11.25;;;2.70;;
36799;SDS011;22752;51.960;5.886;2022-10-22T13:38:11;16.85;;;3.03;;
36799;SDS011;22752;51.960;5.886;2022-10-22T13:43:08;14.63;;;2.60;;
36799;SDS011;22752;51.960;5.886;2022-10-22T13:45:33;14.07;;;3.42;;
36799;SDS011;22752;51.960;5.886;2022-10-22T13:47:59;10.38;;;2.35;;
36799;SDS011;22752;51.960;5.886;2022-10-22T13:50:24;13.18;;;3.13;;
36799;SDS011;22752;51.960;5.886;2022-10-22T13:52:54;13.60;;;2.58;;
36799;SDS011;22752;51.960;5.886;2022-10-22T13:55:25;12.35;;;2.78;;
36799;SDS011;22752;51.960;5.886;2022-10-22T13:57:57;17.77;;;3.65;;
36799;SDS011;22752;51.960;5.886;2022-10-22T14:00:33;15.73;;;2.67;;
36799;SDS011;22752;51.960;5.886;2022-10-22T14:02:59;13.15;;;3.08;;
36799;SDS011;22752;51.960;5.886;2022-10-22T14:05:24;13.55;;;3.22;;
36799;SDS011;22752;51.960;5.886;2022-10-22T14:07:50;12.85;;;3.58;;
36799;SDS011;22752;51.960;5.886;2022-10-22T14:12:43;11.63;;;2.50;;
36799;SDS011;22752;51.960;5.886;2022-10-22T14:15:13;15.63;;;3.20;;
36799;SDS011;22752;51.960;5.886;2022-10-22T14:17:41;12.60;;;3.05;;
36799;SDS011;22752;51.960;5.886;2022-10-22T14:20:23;9.15;;;3.03;;
36799;SDS011;22752;51.960;5.886;2022-10-22T14:22:51;10.27;;;3.22;;
36799;SDS011;22752;51.960;5.886;2022-10-22T14:25:21;12.18;;;2.95;;
36799;SDS011;22752;51.960;5.886;2022-10-22T14:27:48;13.55;;;2.97;;
36799;SDS011;22752;51.960;5.886;2022-10-22T14:30:18;11.50;;;2.63;;
36799;SDS011;22752;51.960;5.886;2022-10-22T14:32:45;11.98;;;2.75;;
36799;SDS011;22752;51.960;5.886;2022-10-22T14:35:13;12.57;;;3.03;;
36799;SDS011;22752;51.960;5.886;2022-10-22T14:37:40;13.90;;;2.60;;
36799;SDS011;22752;51.960;5.886;2022-10-22T14:40:07;11.40;;;3.00;;
36799;SDS011;22752;51.960;5.886;2022-10-22T14:42:38;15.05;;;3.15;;
36799;SDS011;22752;51.960;5.886;2022-10-22T14:45:05;10.50;;;2.45;;
36799;SDS011;22752;51.960;5.886;2022-10-22T14:47:36;13.48;;;2.85;;
36799;SDS011;22752;51.960;5.886;2022-10-22T14:50:02;13.98;;;2.90;;
36799;SDS011;22752;51.960;5.886;2022-10-22T14:52:27;11.57;;;2.85;;
36799;SDS011;22752;51.960;5.886;2022-10-22T14:54:53;12.25;;;3.55;;
36799;SDS011;22752;51.960;5.886;2022-10-22T14:57:19;13.52;;;3.95;;
36799;SDS011;22752;51.960;5.886;2022-10-22T14:59:44;12.50;;;4.03;;
36799;SDS011;22752;51.960;5.886;2022-10-22T15:02:13;15.05;;;5.07;;
36799;SDS011;22752;51.960;5.886;2022-10-22T15:04:38;17.90;;;4.50;;
36799;SDS011;22752;51.960;5.886;2022-10-22T15:07:04;11.20;;;3.63;;
36799;SDS011;22752;51.960;5.886;2022-10-22T15:09:30;15.05;;;8.23;;
36799;SDS011;22752;51.960;5.886;2022-10-22T15:11:56;18.20;;;6.28;;
36799;SDS011;22752;51.960;5.886;2022-10-22T15:14:21;14.05;;;4.90;;
36799;SDS011;22752;51.960;5.886;2022-10-22T15:16:47;15.98;;;5.03;;
36799;SDS011;22752;51.960;5.886;2022-10-22T15:19:13;11.32;;;5.05;;
36799;SDS011;22752;51.960;5.886;2022-10-22T15:21:38;12.45;;;4.20;;
36799;SDS011;22752;51.960;5.886;2022-10-22T15:24:04;14.75;;;4.25;;
36799;SDS011;22752;51.960;5.886;2022-10-22T15:26:30;11.45;;;3.33;;
36799;SDS011;22752;51.960;5.886;2022-10-22T15:28:56;11.48;;;3.00;;
36799;SDS011;22752;51.960;5.886;2022-10-22T15:31:42;10.52;;;2.85;;
36799;SDS011;22752;51.960;5.886;2022-10-22T15:34:09;12.75;;;3.15;;
36799;SDS011;22752;51.960;5.886;2022-10-22T15:36:35;11.88;;;2.80;;
36799;SDS011;22752;51.960;5.886;2022-10-22T15:39:04;12.57;;;3.17;;
36799;SDS011;22752;51.960;5.886;2022-10-22T15:41:31;13.23;;;3.28;;
36799;SDS011;22752;51.960;5.886;2022-10-22T15:43:57;12.60;;;3.15;;
36799;SDS011;22752;51.960;5.886;2022-10-22T15:46:22;12.20;;;3.45;;
36799;SDS011;22752;51.960;5.886;2022-10-22T15:48:49;8.48;;;3.00;;
36799;SDS011;22752;51.960;5.886;2022-10-22T15:51:17;9.07;;;2.58;;
36799;SDS011;22752;51.960;5.886;2022-10-22T15:53:45;10.75;;;2.65;;
36799;SDS011;22752;51.960;5.886;2022-10-22T15:56:15;12.05;;;2.78;;
36799;SDS011;22752;51.960;5.886;2022-10-22T15:58:41;7.57;;;2.63;;
36799;SDS011;22752;51.960;5.886;2022-10-22T16:01:08;6.30;;;2.50;;
36799;SDS011;22752;51.960;5.886;2022-10-22T16:03:35;5.55;;;2.30;;
36799;SDS011;22752;51.960;5.886;2022-10-22T16:06:01;10.70;;;2.97;;
36799;SDS011;22752;51.960;5.886;2022-10-22T16:08:27;10.57;;;2.72;;
36799;SDS011;22752;51.960;5.886;2022-10-22T16:10:53;7.90;;;2.50;;
36799;SDS011;22752;51.960;5.886;2022-10-22T16:13:19;7.35;;;2.63;;
36799;SDS011;22752;51.960;5.886;2022-10-22T16:15:47;5.78;;;2.33;;
36799;SDS011;22752;51.960;5.886;2022-10-22T16:18:13;8.27;;;2.35;;
36799;SDS011;22752;51.960;5.886;2022-10-22T16:20:39;8.23;;;2.38;;
36799;SDS011;22752;51.960;5.886;2022-10-22T16:23:06;11.13;;;2.38;;
36799;SDS011;22752;51.960;5.886;2022-10-22T16:25:38;7.63;;;2.47;;
36799;SDS011;22752;51.960;5.886;2022-10-22T16:30:36;7.68;;;2.15;;
36799;SDS011;22752;51.960;5.886;2022-10-22T16:33:03;5.03;;;1.98;;
36799;SDS011;22752;51.960;5.886;2022-10-22T16:35:30;5.82;;;2.33;;
36799;SDS011;22752;51.960;5.886;2022-10-22T16:37:56;5.38;;;1.95;;
36799;SDS011;22752;51.960;5.886;2022-10-22T16:40:22;6.95;;;1.80;;
36799;SDS011;22752;51.960;5.886;2022-10-22T16:42:48;3.78;;;1.92;;
36799;SDS011;22752;51.960;5.886;2022-10-22T16:45:14;7.97;;;2.20;;
36799;SDS011;22752;51.960;5.886;2022-10-22T16:47:40;5.95;;;2.03;;
36799;SDS011;22752;51.960;5.886;2022-10-22T16:50:07;6.13;;;2.50;;
36799;SDS011;22752;51.960;5.886;2022-10-22T16:52:33;10.23;;;2.65;;
36799;SDS011;22752;51.960;5.886;2022-10-22T16:54:59;7.47;;;2.28;;
36799;SDS011;22752;51.960;5.886;2022-10-22T16:57:25;8.77;;;2.42;;
36799;SDS011;22752;51.960;5.886;2022-10-22T16:59:51;6.32;;;2.33;;
36799;SDS011;22752;51.960;5.886;2022-10-22T17:02:17;9.25;;;2.65;;
36799;SDS011;22752;51.960;5.886;2022-10-22T17:04:43;10.13;;;2.70;;
36799;SDS011;22752;51.960;5.886;2022-10-22T17:07:08;8.05;;;2.70;;
36799;SDS011;22752;51.960;5.886;2022-10-22T17:09:34;6.88;;;2.60;;
36799;SDS011;22752;51.960;5.886;2022-10-22T17:11:59;7.43;;;2.72;;
36799;SDS011;22752;51.960;5.886;2022-10-22T17:14:25;10.95;;;2.88;;
36799;SDS011;22752;51.960;5.886;2022-10-22T17:16:51;11.63;;;3.65;;
36799;SDS011;22752;51.960;5.886;2022-10-22T17:19:18;9.15;;;2.70;;
36799;SDS011;22752;51.960;5.886;2022-10-22T17:21:44;7.25;;;2.60;;
36799;SDS011;22752;51.960;5.886;2022-10-22T17:24:10;7.65;;;2.78;;
36799;SDS011;22752;51.960;5.886;2022-10-22T17:26:36;6.25;;;2.30;;
36799;SDS011;22752;51.960;5.886;2022-10-22T17:29:02;5.82;;;2.70;;
36799;SDS011;22752;51.960;5.886;2022-10-22T17:31:29;6.25;;;2.70;;